sensor_id;sensor_type;location;lat;lon;timestamp;pressure;altitude;pressure_sealevel;temperature;humidity
60019;BME280;45870;42.528;26.740;2022-12-10T00:02:13;99232.22;;;17.96;46.60
60019;BME280;45870;42.528;26.740;2022-12-10T00:04:40;99261.09;;;18.02;46.90
60019;BME280;45870;42.528;26.740;2022-12-10T00:07:05;99247.75;;;18.19;46.85
60019;BME280;45870;42.528;26.740;2022-12-10T00:09:31;99243.09;;;18.38;45.93
60019;BME280;45870;42.528;26.740;2022-12-10T00:11:58;99237.88;;;18.42;46.07
60019;BME280;45870;42.528;26.740;2022-12-10T00:14:23;99244.72;;;18.77;45.49
60019;BME280;45870;42.528;26.740;2022-12-10T00:16:49;99244.31;;;17.42;49.13
60019;BME280;45870;42.528;26.740;2022-12-10T00:19:15;99235.31;;;17.89;48.03
60019;BME280;45870;42.528;26.740;2022-12-10T00:21:42;99244.06;;;18.47;46.84
60019;BME280;45870;42.528;26.740;2022-12-10T00:24:09;99242.88;;;17.98;47.76
60019;BME280;45870;42.528;26.740;2022-12-10T00:26:37;99246.47;;;16.10;52.54
60019;BME280;45870;42.528;26.740;2022-12-10T00:29:05;99243.75;;;18.30;47.27
60019;BME280;45870;42.528;26.740;2022-12-10T00:31:33;99253.34;;;18.84;45.86
60019;BME280;45870;42.528;26.740;2022-12-10T00:34:03;99238.31;;;18.68;46.33
60019;BME280;45870;42.528;26.740;2022-12-10T00:36:32;99243.19;;;18.71;46.57
60019;BME280;45870;42.528;26.740;2022-12-10T00:38:58;99221.47;;;18.93;46.00
60019;BME280;45870;42.528;26.740;2022-12-10T00:41:24;99176.44;;;18.72;45.48
60019;BME280;45870;42.528;26.740;2022-12-10T00:43:50;99242.78;;;18.96;45.92
60019;BME280;45870;42.528;26.740;2022-12-10T00:46:18;99250.44;;;18.94;45.88
60019;BME280;45870;42.528;26.740;2022-12-10T00:48:44;99257.97;;;19.02;45.64
60019;BME280;45870;42.528;26.740;2022-12-10T00:51:13;99254.44;;;19.02;45.62
60019;BME280;45870;42.528;26.740;2022-12-10T00:53:41;99249.59;;;19.12;45.66
60019;BME280;45870;42.528;26.740;2022-12-10T00:56:09;99250.63;;;18.84;46.36
60019;BME280;45870;42.528;26.740;2022-12-10T00:58:36;99248.88;;;19.07;45.71
60019;BME280;45870;42.528;26.740;2022-12-10T01:03:43;99247.28;;;19.19;45.86
60019;BME280;45870;42.528;26.740;2022-12-10T01:06:14;99239.84;;;18.74;46.78
60019;BME280;45870;42.528;26.740;2022-12-10T01:08:40;99244.22;;;18.37;48.29
60019;BME280;45870;42.528;26.740;2022-12-10T01:11:07;99214.44;;;19.06;46.26
60019;BME280;45870;42.528;26.740;2022-12-10T01:13:33;99238.47;;;19.22;45.99
60019;BME280;45870;42.528;26.740;2022-12-10T01:16:03;99231.44;;;19.49;45.44
60019;BME280;45870;42.528;26.740;2022-12-10T01:18:29;99227.22;;;19.24;46.37
60019;BME280;45870;42.528;26.740;2022-12-10T01:21:00;99226.88;;;19.58;45.88
60019;BME280;45870;42.528;26.740;2022-12-10T01:23:27;99230.63;;;19.48;45.80
60019;BME280;45870;42.528;26.740;2022-12-10T01:25:52;99187.50;;;19.40;45.65
60019;BME280;45870;42.528;26.740;2022-12-10T01:28:18;99220.34;;;19.40;45.83
60019;BME280;45870;42.528;26.740;2022-12-10T01:30:44;99181.81;;;19.09;46.07
60019;BME280;45870;42.528;26.740;2022-12-10T01:33:10;99230.16;;;18.81;46.59
60019;BME280;45870;42.528;26.740;2022-12-10T01:35:37;99224.06;;;19.03;46.94
60019;BME280;45870;42.528;26.740;2022-12-10T01:38:02;99211.91;;;19.23;46.20
60019;BME280;45870;42.528;26.740;2022-12-10T01:40:29;99142.44;;;18.64;46.96
60019;BME280;45870;42.528;26.740;2022-12-10T01:42:55;99215.63;;;19.46;46.00
60019;BME280;45870;42.528;26.740;2022-12-10T01:45:21;99217.84;;;19.57;45.62
60019;BME280;45870;42.528;26.740;2022-12-10T01:47:47;99210.19;;;19.27;46.01
60019;BME280;45870;42.528;26.740;2022-12-10T01:50:13;99175.84;;;19.21;45.58
60019;BME280;45870;42.528;26.740;2022-12-10T01:52:38;99208.22;;;19.60;45.38
60019;BME280;45870;42.528;26.740;2022-12-10T01:55:34;99213.16;;;19.71;45.03
60019;BME280;45870;42.528;26.740;2022-12-10T01:57:53;99207.59;;;19.76;45.38
60019;BME280;45870;42.528;26.740;2022-12-10T02:00:19;99221.28;;;19.76;45.19
60019;BME280;45870;42.528;26.740;2022-12-10T02:02:59;99212.34;;;19.71;45.64
60019;BME280;45870;42.528;26.740;2022-12-10T02:05:44;99215.28;;;19.74;45.76
60019;BME280;45870;42.528;26.740;2022-12-10T02:08:31;99165.41;;;19.50;45.43
60019;BME280;45870;42.528;26.740;2022-12-10T02:11:22;99206.28;;;19.60;45.44
60019;BME280;45870;42.528;26.740;2022-12-10T02:13:58;99202.09;;;19.35;46.06
60019;BME280;45870;42.528;26.740;2022-12-10T02:16:39;99208.81;;;19.43;45.89
60019;BME280;45870;42.528;26.740;2022-12-10T02:19:21;99204.06;;;19.62;45.19
60019;BME280;45870;42.528;26.740;2022-12-10T02:21:52;99197.97;;;19.52;45.35
60019;BME280;45870;42.528;26.740;2022-12-10T02:24:24;99181.22;;;19.26;45.50
60019;BME280;45870;42.528;26.740;2022-12-10T02:27:16;99172.19;;;19.12;45.84
60019;BME280;45870;42.528;26.740;2022-12-10T02:29:46;99199.03;;;19.23;45.62
60019;BME280;45870;42.528;26.740;2022-12-10T02:32:31;99191.34;;;19.25;45.25
60019;BME280;45870;42.528;26.740;2022-12-10T02:35:02;99169.50;;;18.93;45.76
60019;BME280;45870;42.528;26.740;2022-12-10T02:37:33;99186.66;;;18.99;45.67
60019;BME280;45870;42.528;26.740;2022-12-10T02:40:04;99088.81;;;18.17;46.03
60019;BME280;45870;42.528;26.740;2022-12-10T02:42:34;99176.75;;;18.70;46.04
60019;BME280;45870;42.528;26.740;2022-12-10T02:45:03;99181.50;;;18.65;46.43
60019;BME280;45870;42.528;26.740;2022-12-10T02:47:31;99195.09;;;18.70;45.57
60019;BME280;45870;42.528;26.740;2022-12-10T02:49:58;99180.16;;;18.62;45.58
60019;BME280;45870;42.528;26.740;2022-12-10T02:52:24;99182.31;;;18.65;45.93
60019;BME280;45870;42.528;26.740;2022-12-10T02:54:51;99179.09;;;18.77;45.85
60019;BME280;45870;42.528;26.740;2022-12-10T03:00:17;99179.28;;;18.67;45.46
60019;BME280;45870;42.528;26.740;2022-12-10T03:08:11;99172.78;;;18.63;46.86
60019;BME280;45870;42.528;26.740;2022-12-10T03:10:55;99173.38;;;18.92;46.82
60019;BME280;45870;42.528;26.740;2022-12-10T03:13:27;99168.81;;;18.55;47.81
60019;BME280;45870;42.528;26.740;2022-12-10T03:15:54;99173.72;;;18.72;47.99
60019;BME280;45870;42.528;26.740;2022-12-10T03:18:24;99161.84;;;19.36;45.65
60019;BME280;45870;42.528;26.740;2022-12-10T03:20:51;99154.16;;;18.14;50.14
60019;BME280;45870;42.528;26.740;2022-12-10T03:23:19;99159.81;;;18.36;49.80
60019;BME280;45870;42.528;26.740;2022-12-10T03:25:47;99162.13;;;17.73;52.35
60019;BME280;45870;42.528;26.740;2022-12-10T03:28:16;99150.22;;;17.40;53.70
60019;BME280;45870;42.528;26.740;2022-12-10T03:30:44;99158.69;;;18.88;48.93
60019;BME280;45870;42.528;26.740;2022-12-10T03:33:11;99163.59;;;17.65;51.34
60019;BME280;45870;42.528;26.740;2022-12-10T03:35:38;99172.88;;;19.04;47.67
60019;BME280;45870;42.528;26.740;2022-12-10T03:38:04;99168.88;;;19.56;46.08
60019;BME280;45870;42.528;26.740;2022-12-10T03:40:30;99169.50;;;19.53;45.99
60019;BME280;45870;42.528;26.740;2022-12-10T03:42:56;99157.13;;;19.41;46.21
60019;BME280;45870;42.528;26.740;2022-12-10T03:45:22;99162.25;;;19.29;46.68
60019;BME280;45870;42.528;26.740;2022-12-10T03:47:47;99161.22;;;19.25;45.96
60019;BME280;45870;42.528;26.740;2022-12-10T03:50:15;99158.63;;;19.20;46.01
60019;BME280;45870;42.528;26.740;2022-12-10T03:52:41;99161.84;;;19.22;46.30
60019;BME280;45870;42.528;26.740;2022-12-10T03:55:07;99144.13;;;19.20;45.84
60019;BME280;45870;42.528;26.740;2022-12-10T03:57:34;99143.59;;;19.04;46.34
60019;BME280;45870;42.528;26.740;2022-12-10T04:00:00;99148.03;;;19.00;46.50
60019;BME280;45870;42.528;26.740;2022-12-10T04:02:25;99148.66;;;19.11;46.55
60019;BME280;45870;42.528;26.740;2022-12-10T04:04:51;99141.69;;;19.05;46.35
60019;BME280;45870;42.528;26.740;2022-12-10T04:07:17;99138.84;;;18.96;45.35
60019;BME280;45870;42.528;26.740;2022-12-10T04:09:42;99145.50;;;18.90;45.54
60019;BME280;45870;42.528;26.740;2022-12-10T04:12:08;99142.69;;;18.95;45.33
60019;BME280;45870;42.528;26.740;2022-12-10T04:14:35;99152.34;;;18.60;45.35
60019;BME280;45870;42.528;26.740;2022-12-10T04:17:19;99150.28;;;18.52;46.73
60019;BME280;45870;42.528;26.740;2022-12-10T04:19:45;99128.38;;;18.71;46.16
60019;BME280;45870;42.528;26.740;2022-12-10T04:22:11;99145.09;;;18.96;45.37
60019;BME280;45870;42.528;26.740;2022-12-10T04:24:55;99140.28;;;17.49;48.15
60019;BME280;45870;42.528;26.740;2022-12-10T04:27:40;99129.38;;;18.61;45.74
60019;BME280;45870;42.528;26.740;2022-12-10T04:30:08;99127.09;;;18.95;45.76
60019;BME280;45870;42.528;26.740;2022-12-10T04:32:34;99119.44;;;18.79;46.17
60019;BME280;45870;42.528;26.740;2022-12-10T04:35:00;99116.81;;;18.74;46.09
60019;BME280;45870;42.528;26.740;2022-12-10T04:37:27;99116.22;;;18.77;46.13
60019;BME280;45870;42.528;26.740;2022-12-10T04:39:53;99117.50;;;18.66;45.84
60019;BME280;45870;42.528;26.740;2022-12-10T04:42:21;99113.28;;;18.41;46.25
60019;BME280;45870;42.528;26.740;2022-12-10T04:44:47;99117.59;;;18.28;46.04
60019;BME280;45870;42.528;26.740;2022-12-10T04:47:13;99120.50;;;18.18;45.36
60019;BME280;45870;42.528;26.740;2022-12-10T04:49:39;99121.47;;;17.90;46.82
60019;BME280;45870;42.528;26.740;2022-12-10T04:52:06;99124.16;;;17.29;48.33
60019;BME280;45870;42.528;26.740;2022-12-10T04:54:33;99122.41;;;17.99;45.85
60019;BME280;45870;42.528;26.740;2022-12-10T04:56:59;99127.38;;;17.97;46.35
60019;BME280;45870;42.528;26.740;2022-12-10T04:59:25;99113.75;;;18.29;47.04
60019;BME280;45870;42.528;26.740;2022-12-10T05:01:50;99115.50;;;18.71;46.41
60019;BME280;45870;42.528;26.740;2022-12-10T05:04:17;99113.16;;;18.65;45.85
60019;BME280;45870;42.528;26.740;2022-12-10T05:06:44;99121.69;;;18.44;44.99
60019;BME280;45870;42.528;26.740;2022-12-10T05:09:11;99003.94;;;17.63;44.92
60019;BME280;45870;42.528;26.740;2022-12-10T05:11:37;99107.69;;;18.32;45.40
60019;BME280;45870;42.528;26.740;2022-12-10T05:14:04;99113.84;;;18.57;45.54
60019;BME280;45870;42.528;26.740;2022-12-10T05:16:31;99105.13;;;18.55;45.18
60019;BME280;45870;42.528;26.740;2022-12-10T05:18:59;98996.03;;;17.42;46.03
60019;BME280;45870;42.528;26.740;2022-12-10T05:21:27;99109.56;;;18.18;46.57
60019;BME280;45870;42.528;26.740;2022-12-10T05:24:12;99105.34;;;18.58;45.88
60019;BME280;45870;42.528;26.740;2022-12-10T05:26:38;99103.91;;;18.47;45.50
60019;BME280;45870;42.528;26.740;2022-12-10T05:29:03;99100.88;;;17.98;45.51
60019;BME280;45870;42.528;26.740;2022-12-10T05:31:30;99058.22;;;16.79;49.57
60019;BME280;45870;42.528;26.740;2022-12-10T05:33:58;99015.16;;;17.24;45.88
60019;BME280;45870;42.528;26.740;2022-12-10T05:36:48;99056.88;;;17.99;45.99
60019;BME280;45870;42.528;26.740;2022-12-10T05:39:15;99128.34;;;18.38;46.01
60019;BME280;45870;42.528;26.740;2022-12-10T05:41:41;99129.19;;;18.20;46.57
60019;BME280;45870;42.528;26.740;2022-12-10T05:44:09;99130.38;;;18.14;46.64
60019;BME280;45870;42.528;26.740;2022-12-10T05:46:35;99001.38;;;17.71;46.20
60019;BME280;45870;42.528;26.740;2022-12-10T05:49:02;99121.66;;;18.63;45.77
60019;BME280;45870;42.528;26.740;2022-12-10T05:51:31;99131.41;;;18.83;45.61
60019;BME280;45870;42.528;26.740;2022-12-10T05:53:58;99120.78;;;18.68;46.52
60019;BME280;45870;42.528;26.740;2022-12-10T05:56:25;99120.91;;;19.04;45.69
60019;BME280;45870;42.528;26.740;2022-12-10T05:58:54;99113.72;;;18.94;45.71
60019;BME280;45870;42.528;26.740;2022-12-10T06:01:23;99120.91;;;19.04;46.08
60019;BME280;45870;42.528;26.740;2022-12-10T06:03:50;99119.50;;;18.92;46.69
60019;BME280;45870;42.528;26.740;2022-12-10T06:06:27;99123.09;;;18.61;46.45
60019;BME280;45870;42.528;26.740;2022-12-10T06:08:54;99129.81;;;17.80;48.98
60019;BME280;45870;42.528;26.740;2022-12-10T06:11:20;99042.72;;;17.41;49.49
60019;BME280;45870;42.528;26.740;2022-12-10T06:13:47;99097.47;;;18.57;47.46
60019;BME280;45870;42.528;26.740;2022-12-10T06:16:13;99121.00;;;19.26;46.66
60019;BME280;45870;42.528;26.740;2022-12-10T06:18:40;99094.47;;;19.26;46.32
60019;BME280;45870;42.528;26.740;2022-12-10T06:21:09;99118.41;;;19.48;46.58
60019;BME280;45870;42.528;26.740;2022-12-10T06:23:36;99121.41;;;19.60;46.44
60019;BME280;45870;42.528;26.740;2022-12-10T06:26:07;99117.78;;;19.24;46.40
60019;BME280;45870;42.528;26.740;2022-12-10T06:28:35;99124.84;;;17.82;49.84
60019;BME280;45870;42.528;26.740;2022-12-10T06:31:01;99067.16;;;15.98;54.90
60019;BME280;45870;42.528;26.740;2022-12-10T06:33:28;99128.47;;;16.87;54.23
60019;BME280;45870;42.528;26.740;2022-12-10T06:35:54;99126.63;;;17.91;50.13
60019;BME280;45870;42.528;26.740;2022-12-10T06:38:19;99129.81;;;18.50;49.13
60019;BME280;45870;42.528;26.740;2022-12-10T06:40:45;99043.81;;;18.61;47.33
60019;BME280;45870;42.528;26.740;2022-12-10T06:43:11;99130.09;;;19.76;45.81
60019;BME280;45870;42.528;26.740;2022-12-10T06:45:40;99131.91;;;19.94;45.88
60019;BME280;45870;42.528;26.740;2022-12-10T06:48:06;99131.13;;;20.02;45.52
60019;BME280;45870;42.528;26.740;2022-12-10T06:50:32;99129.69;;;20.18;46.30
60019;BME280;45870;42.528;26.740;2022-12-10T06:52:59;99129.38;;;20.42;46.12
60019;BME280;45870;42.528;26.740;2022-12-10T06:55:24;99112.59;;;20.66;44.85
60019;BME280;45870;42.528;26.740;2022-12-10T06:57:53;99128.91;;;20.93;45.34
60019;BME280;45870;42.528;26.740;2022-12-10T07:00:20;99117.13;;;21.01;44.16
60019;BME280;45870;42.528;26.740;2022-12-10T07:02:46;99132.72;;;20.17;44.97
60019;BME280;45870;42.528;26.740;2022-12-10T07:05:11;99107.00;;;20.04;45.21
60019;BME280;45870;42.528;26.740;2022-12-10T07:07:38;98954.91;;;16.35;50.81
60019;BME280;45870;42.528;26.740;2022-12-10T07:10:04;99130.53;;;18.04;50.47
60019;BME280;45870;42.528;26.740;2022-12-10T07:12:31;99134.50;;;19.09;48.56
60019;BME280;45870;42.528;26.740;2022-12-10T07:14:57;99134.75;;;18.47;48.86
60019;BME280;45870;42.528;26.740;2022-12-10T07:17:23;99137.19;;;18.68;48.20
60019;BME280;45870;42.528;26.740;2022-12-10T07:19:49;99128.94;;;19.55;45.72
60019;BME280;45870;42.528;26.740;2022-12-10T07:22:15;99131.63;;;20.93;43.20
60019;BME280;45870;42.528;26.740;2022-12-10T07:24:40;99126.91;;;21.64;42.03
60019;BME280;45870;42.528;26.740;2022-12-10T07:27:08;99129.41;;;21.91;41.05
60019;BME280;45870;42.528;26.740;2022-12-10T07:29:34;98952.63;;;20.31;41.68
60019;BME280;45870;42.528;26.740;2022-12-10T07:32:00;99089.78;;;20.79;42.67
60019;BME280;45870;42.528;26.740;2022-12-10T07:34:26;99130.06;;;20.25;44.05
60019;BME280;45870;42.528;26.740;2022-12-10T07:36:51;99122.81;;;20.07;44.77
60019;BME280;45870;42.528;26.740;2022-12-10T07:39:17;99122.91;;;20.02;45.30
60019;BME280;45870;42.528;26.740;2022-12-10T07:41:44;99115.59;;;20.78;43.45
60019;BME280;45870;42.528;26.740;2022-12-10T07:44:13;99054.91;;;21.19;41.57
60019;BME280;45870;42.528;26.740;2022-12-10T07:46:38;99103.00;;;21.73;40.88
60019;BME280;45870;42.528;26.740;2022-12-10T07:49:05;99115.09;;;21.72;41.05
60019;BME280;45870;42.528;26.740;2022-12-10T07:51:31;99109.94;;;21.79;41.11
60019;BME280;45870;42.528;26.740;2022-12-10T07:53:56;99113.16;;;21.72;41.01
60019;BME280;45870;42.528;26.740;2022-12-10T07:56:23;98914.25;;;20.79;41.32
60019;BME280;45870;42.528;26.740;2022-12-10T07:58:50;99113.69;;;22.34;40.97
60019;BME280;45870;42.528;26.740;2022-12-10T08:01:20;99088.28;;;22.55;39.41
60019;BME280;45870;42.528;26.740;2022-12-10T08:03:48;99074.25;;;22.30;39.73
60019;BME280;45870;42.528;26.740;2022-12-10T08:06:16;99110.16;;;22.25;40.32
60019;BME280;45870;42.528;26.740;2022-12-10T08:08:43;99064.41;;;21.95;40.83
60019;BME280;45870;42.528;26.740;2022-12-10T08:11:10;99049.84;;;22.03;40.23
60019;BME280;45870;42.528;26.740;2022-12-10T08:13:36;99100.88;;;21.61;42.13
60019;BME280;45870;42.528;26.740;2022-12-10T08:16:06;99091.72;;;22.09;41.50
60019;BME280;45870;42.528;26.740;2022-12-10T08:18:33;99107.50;;;22.72;40.60
60019;BME280;45870;42.528;26.740;2022-12-10T08:21:07;99048.41;;;22.06;41.02
60019;BME280;45870;42.528;26.740;2022-12-10T08:23:33;99097.66;;;22.54;40.99
60019;BME280;45870;42.528;26.740;2022-12-10T08:26:04;99076.00;;;22.44;41.11
60019;BME280;45870;42.528;26.740;2022-12-10T08:28:30;98955.91;;;22.10;39.90
60019;BME280;45870;42.528;26.740;2022-12-10T08:30:56;99096.72;;;22.32;40.96
60019;BME280;45870;42.528;26.740;2022-12-10T08:33:22;99096.41;;;22.08;42.03
60019;BME280;45870;42.528;26.740;2022-12-10T08:35:48;99047.44;;;21.93;42.28
60019;BME280;45870;42.528;26.740;2022-12-10T08:38:14;99086.34;;;21.78;42.41
60019;BME280;45870;42.528;26.740;2022-12-10T08:40:40;99092.88;;;20.11;46.45
60019;BME280;45870;42.528;26.740;2022-12-10T08:43:07;99054.66;;;20.59;44.76
60019;BME280;45870;42.528;26.740;2022-12-10T08:45:32;99089.75;;;21.83;42.35
60019;BME280;45870;42.528;26.740;2022-12-10T08:47:58;99032.53;;;22.03;41.16
60019;BME280;45870;42.528;26.740;2022-12-10T08:50:24;99072.44;;;22.52;40.65
60019;BME280;45870;42.528;26.740;2022-12-10T08:52:49;99076.47;;;22.54;40.97
60019;BME280;45870;42.528;26.740;2022-12-10T08:55:15;99025.94;;;22.12;40.92
60019;BME280;45870;42.528;26.740;2022-12-10T08:57:41;99066.41;;;22.67;40.59
60019;BME280;45870;42.528;26.740;2022-12-10T09:00:07;99036.41;;;23.12;39.05
60019;BME280;45870;42.528;26.740;2022-12-10T09:02:33;99056.50;;;23.50;38.60
60019;BME280;45870;42.528;26.740;2022-12-10T09:04:58;99061.16;;;24.12;37.83
60019;BME280;45870;42.528;26.740;2022-12-10T09:07:24;99050.50;;;24.43;36.94
60019;BME280;45870;42.528;26.740;2022-12-10T09:09:50;99023.44;;;24.69;36.95
60019;BME280;45870;42.528;26.740;2022-12-10T09:12:15;98887.41;;;23.87;37.08
60019;BME280;45870;42.528;26.740;2022-12-10T09:14:41;98973.94;;;24.40;37.20
60019;BME280;45870;42.528;26.740;2022-12-10T09:17:08;99026.53;;;24.56;37.42
60019;BME280;45870;42.528;26.740;2022-12-10T09:19:34;98933.66;;;23.49;38.29
60019;BME280;45870;42.528;26.740;2022-12-10T09:22:00;99037.13;;;25.26;36.32
60019;BME280;45870;42.528;26.740;2022-12-10T09:24:25;99035.13;;;22.80;42.28
60019;BME280;45870;42.528;26.740;2022-12-10T09:26:51;99030.91;;;20.85;46.62
60019;BME280;45870;42.528;26.740;2022-12-10T09:29:17;99029.94;;;21.37;45.79
60019;BME280;45870;42.528;26.740;2022-12-10T09:31:43;99025.13;;;21.77;44.01
60019;BME280;45870;42.528;26.740;2022-12-10T09:34:08;98966.50;;;22.37;42.76
60019;BME280;45870;42.528;26.740;2022-12-10T09:36:34;99013.09;;;20.34;47.40
60019;BME280;45870;42.528;26.740;2022-12-10T09:39:00;99013.94;;;20.74;47.55
60019;BME280;45870;42.528;26.740;2022-12-10T09:46:55;98831.16;;;20.78;45.63
60019;BME280;45870;42.528;26.740;2022-12-10T09:51:59;98980.34;;;22.03;44.16
60019;BME280;45870;42.528;26.740;2022-12-10T09:54:41;98981.06;;;23.75;41.79
60019;BME280;45870;42.528;26.740;2022-12-10T09:57:20;98975.69;;;23.79;41.81
60019;BME280;45870;42.528;26.740;2022-12-10T09:59:49;98963.41;;;22.38;45.00
60019;BME280;45870;42.528;26.740;2022-12-10T10:04:41;98957.19;;;24.81;39.76
60019;BME280;45870;42.528;26.740;2022-12-10T10:07:14;98945.53;;;25.37;38.97
60019;BME280;45870;42.528;26.740;2022-12-10T10:09:42;98950.16;;;24.48;40.91
60019;BME280;45870;42.528;26.740;2022-12-10T10:12:13;98959.31;;;22.91;44.79
60019;BME280;45870;42.528;26.740;2022-12-10T10:14:40;98949.00;;;24.36;41.45
60019;BME280;45870;42.528;26.740;2022-12-10T10:17:29;98813.56;;;21.86;46.05
60019;BME280;45870;42.528;26.740;2022-12-10T10:19:58;98944.06;;;23.44;45.25
60019;BME280;45870;42.528;26.740;2022-12-10T10:22:25;98939.16;;;23.08;45.02
60019;BME280;45870;42.528;26.740;2022-12-10T10:24:52;98921.28;;;22.93;45.38
60019;BME280;45870;42.528;26.740;2022-12-10T10:27:20;98912.47;;;21.95;48.36
60019;BME280;45870;42.528;26.740;2022-12-10T10:29:53;98917.25;;;22.23;47.65
60019;BME280;45870;42.528;26.740;2022-12-10T10:32:22;98913.94;;;22.38;48.48
60019;BME280;45870;42.528;26.740;2022-12-10T10:34:54;98907.06;;;23.32;46.20
60019;BME280;45870;42.528;26.740;2022-12-10T10:37:25;98905.06;;;22.33;48.43
60019;BME280;45870;42.528;26.740;2022-12-10T10:39:54;98895.50;;;21.84;50.06
60019;BME280;45870;42.528;26.740;2022-12-10T10:42:36;98901.75;;;22.10;50.22
60019;BME280;45870;42.528;26.740;2022-12-10T10:45:04;98896.22;;;22.57;49.15
60019;BME280;45870;42.528;26.740;2022-12-10T10:47:33;98883.78;;;22.51;47.97
60019;BME280;45870;42.528;26.740;2022-12-10T10:49:59;98740.53;;;22.14;47.66
60019;BME280;45870;42.528;26.740;2022-12-10T10:52:30;98834.13;;;22.76;48.04
60019;BME280;45870;42.528;26.740;2022-12-10T10:55:00;98873.66;;;23.34;48.01
60019;BME280;45870;42.528;26.740;2022-12-10T10:57:32;98863.94;;;23.69;46.94
60019;BME280;45870;42.528;26.740;2022-12-10T11:00:20;98872.72;;;22.88;48.18
60019;BME280;45870;42.528;26.740;2022-12-10T11:02:48;98858.34;;;21.95;49.76
60019;BME280;45870;42.528;26.740;2022-12-10T11:05:23;98858.28;;;22.71;47.90
60019;BME280;45870;42.528;26.740;2022-12-10T11:07:59;98855.03;;;22.10;48.00
60019;BME280;45870;42.528;26.740;2022-12-10T11:10:25;98816.56;;;22.39;46.61
60019;BME280;45870;42.528;26.740;2022-12-10T11:13:10;98853.59;;;22.13;48.51
60019;BME280;45870;42.528;26.740;2022-12-10T11:15:43;98858.78;;;23.14;46.42
60019;BME280;45870;42.528;26.740;2022-12-10T11:18:33;98851.34;;;21.89;48.26
60019;BME280;45870;42.528;26.740;2022-12-10T11:21:06;98846.69;;;22.27;48.01
60019;BME280;45870;42.528;26.740;2022-12-10T11:23:41;98850.56;;;21.97;48.41
60019;BME280;45870;42.528;26.740;2022-12-10T11:31:54;98834.34;;;22.92;46.04
60019;BME280;45870;42.528;26.740;2022-12-10T11:44:45;98822.06;;;24.00;43.97
60019;BME280;45870;42.528;26.740;2022-12-10T11:47:33;98831.41;;;22.47;47.43
60019;BME280;45870;42.528;26.740;2022-12-10T11:50:27;98824.03;;;22.01;48.48
60019;BME280;45870;42.528;26.740;2022-12-10T11:53:18;98829.59;;;22.22;47.77
60019;BME280;45870;42.528;26.740;2022-12-10T11:55:56;98822.13;;;23.02;45.87
60019;BME280;45870;42.528;26.740;2022-12-10T12:07:23;98706.31;;;23.52;43.80
60019;BME280;45870;42.528;26.740;2022-12-10T12:15:20;98789.63;;;22.54;46.71
60019;BME280;45870;42.528;26.740;2022-12-10T12:17:53;98797.56;;;22.97;46.20
60019;BME280;45870;42.528;26.740;2022-12-10T12:20:28;98799.78;;;22.82;47.04
60019;BME280;45870;42.528;26.740;2022-12-10T12:25:57;98805.91;;;22.09;48.13
60019;BME280;45870;42.528;26.740;2022-12-10T12:31:05;98799.75;;;22.12;48.40
60019;BME280;45870;42.528;26.740;2022-12-10T12:33:43;98797.38;;;22.02;49.16
60019;BME280;45870;42.528;26.740;2022-12-10T12:36:18;98797.69;;;22.00;48.98
60019;BME280;45870;42.528;26.740;2022-12-10T12:44:29;98722.50;;;22.05;47.67
60019;BME280;45870;42.528;26.740;2022-12-10T12:47:04;98775.28;;;21.81;49.13
60019;BME280;45870;42.528;26.740;2022-12-10T12:49:38;98773.50;;;22.73;47.22
60019;BME280;45870;42.528;26.740;2022-12-10T12:55:14;98742.38;;;23.26;44.97
60019;BME280;45870;42.528;26.740;2022-12-10T13:00:17;98753.84;;;22.95;45.94
60019;BME280;45870;42.528;26.740;2022-12-10T13:03:00;98759.59;;;24.04;43.63
60019;BME280;45870;42.528;26.740;2022-12-10T13:05:36;98745.38;;;24.26;42.65
60019;BME280;45870;42.528;26.740;2022-12-10T13:08:24;98713.53;;;23.44;44.52
60019;BME280;45870;42.528;26.740;2022-12-10T13:14:02;98714.44;;;24.73;41.77
60019;BME280;45870;42.528;26.740;2022-12-10T13:24:21;98754.59;;;25.54;40.62
60019;BME280;45870;42.528;26.740;2022-12-10T13:40:23;98751.88;;;23.49;45.46
60019;BME280;45870;42.528;26.740;2022-12-10T13:43:19;98652.59;;;23.70;43.59
60019;BME280;45870;42.528;26.740;2022-12-10T13:49:16;98738.94;;;23.98;43.85
60019;BME280;45870;42.528;26.740;2022-12-10T13:52:03;98700.94;;;23.92;43.18
60019;BME280;45870;42.528;26.740;2022-12-10T14:00:20;98747.81;;;25.23;41.06
60019;BME280;45870;42.528;26.740;2022-12-10T14:08:18;98745.84;;;23.92;43.71
60019;BME280;45870;42.528;26.740;2022-12-10T14:10:46;98716.19;;;23.89;43.14
60019;BME280;45870;42.528;26.740;2022-12-10T14:13:15;98732.50;;;24.18;42.94
60019;BME280;45870;42.528;26.740;2022-12-10T14:15:53;98738.59;;;23.63;43.80
60019;BME280;45870;42.528;26.740;2022-12-10T14:18:19;98688.78;;;23.23;44.07
60019;BME280;45870;42.528;26.740;2022-12-10T14:20:51;98742.75;;;23.36;44.35
60019;BME280;45870;42.528;26.740;2022-12-10T14:23:30;98745.84;;;23.02;45.30
60019;BME280;45870;42.528;26.740;2022-12-10T14:26:06;98746.69;;;22.61;45.95
60019;BME280;45870;42.528;26.740;2022-12-10T14:28:32;98752.31;;;22.44;46.96
60019;BME280;45870;42.528;26.740;2022-12-10T14:31:03;98752.19;;;22.61;45.87
60019;BME280;45870;42.528;26.740;2022-12-10T14:33:32;98748.13;;;22.67;45.73
60019;BME280;45870;42.528;26.740;2022-12-10T14:35:58;98750.22;;;23.36;44.29
60019;BME280;45870;42.528;26.740;2022-12-10T14:38:31;98695.06;;;21.96;47.11
60019;BME280;45870;42.528;26.740;2022-12-10T14:40:59;98737.09;;;23.21;44.22
60019;BME280;45870;42.528;26.740;2022-12-10T14:43:32;98744.56;;;22.67;45.87
60019;BME280;45870;42.528;26.740;2022-12-10T14:46:03;98741.22;;;23.96;42.23
60019;BME280;45870;42.528;26.740;2022-12-10T14:48:29;98737.22;;;24.30;41.83
60019;BME280;45870;42.528;26.740;2022-12-10T14:51:03;98693.13;;;24.46;40.70